Terminal Aerodrome Forecast
Issued by NWS Cleveland, OH

Home | Current Version | Previous Version | Graphics & Text | Print | Product List | Glossary On
Versions: 1 2 3 4 5 6 7 8 9 10 11 12 13 14 15 16 17 18 19 20 21
000
FTUS41 KCLE 212337
TAFYNG
TAF
KYNG 212337Z 2200/2224 20005KT P6SM OVC080
     FM220700 20003KT P6SM OVC050
      TEMPO 2207/2210 5SM BR OVC025
     FM221000 17003KT 3SM BR OVC025
     FM221400 19006KT 5SM BR OVC012
     FM221800 17006KT P6SM OVC025
     FM222200 22006KT P6SM OVC045=

USA.gov is the U.S. government's official web portal to all federal, state and local government web resources and services.